This is the latest recevied weather packets stored in our database for station/object N8SDR. If no packets are shown the sender has not sent any weather packets the latest 1 day(s).
| Time | Temp. | Humidity | Pressure | Rain* | Wind** | Luminosity | Snow |
|---|---|---|---|---|---|---|---|
| 1778008103 | 19.44° C | 77% | 1004.8 hPa | 0 mm | 0 m/s | 49 W/m² | - |
| 1778007799 | 20° C | 77% | 1004.8 hPa | 0 mm | 0 m/s | 79 W/m² | - |
| 1778007495 | 20° C | 77% | 1004.8 hPa | 0 mm | 0 m/s | 68 W/m² | - |
| 1778007192 | 20° C | 76% | 1004.7 hPa | 0 mm | 1.34 m/s, 235° | 105 W/m² | - |
| 1778006888 | 20° C | 76% | 1004.9 hPa | 0 mm | 0 m/s | 83 W/m² | - |
| 1778006585 | 20° C | 76% | 1005.1 hPa | 0 mm | 0 m/s | 75 W/m² | - |
| 1778006282 | 20° C | 75% | 1004.7 hPa | 0 mm | 0.45 m/s, 228° | 164 W/m² | - |
| 1778005979 | 20° C | 75% | 1004.8 hPa | 0 mm | 0 m/s | 204 W/m² | - |
| 1778005676 | 20° C | 75% | 1004.8 hPa | 0 mm | 0.89 m/s, 190° | 197 W/m² | - |
| 1778005372 | 20° C | 75% | 1005 hPa | 0 mm | 2.24 m/s, 188° | 156 W/m² | - |
| 1778005069 | 20° C | 75% | 1004.9 hPa | 0 mm | 0 m/s | 125 W/m² | - |
| 1778004766 | 19.44° C | 75% | 1005.1 hPa | 0 mm | 0.45 m/s, 210° | 151 W/m² | - |
| 1778004463 | 19.44° C | 75% | 1005.1 hPa | 0 mm | 0.89 m/s, 188° | 141 W/m² | - |
| 1778004159 | 19.44° C | 75% | 1005.2 hPa | 0 mm | 0.45 m/s, 178° | 84 W/m² | - |
| 1778003856 | 19.44° C | 74% | 1005.2 hPa | 0 mm | 2.68 m/s, 234° | 106 W/m² | - |
| 1778003552 | 20° C | 74% | 1005.5 hPa | 0 mm | 1.79 m/s, 184° | 86 W/m² | - |
| 1778003249 | 20° C | 74% | 1005.3 hPa | 0 mm | 1.34 m/s, 210° | 168 W/m² | - |
| 1778002946 | 20° C | 74% | 1005.4 hPa | 0 mm | 1.34 m/s, 260° | 218 W/m² | - |
| 1778002642 | 20° C | 74% | 1005.3 hPa | 0 mm | 2.68 m/s, 192° | 255 W/m² | - |
| 1778002339 | 20° C | 75% | 1005.4 hPa | 0 mm | 1.34 m/s, 215° | 218 W/m² | - |
| 1778002036 | 20° C | 74% | 1005.6 hPa | 0 mm | 1.79 m/s, 176° | 126 W/m² | - |
| 1778001733 | 20° C | 74% | 1005.4 hPa | 0 mm | 1.34 m/s, 185° | 154 W/m² | - |
| 1778001433 | 20° C | 74% | 1005.5 hPa | 0 mm | 1.79 m/s, 240° | 202 W/m² | - |
| 1778001130 | 20° C | 74% | 1005.7 hPa | 0 mm | 0 m/s | 222 W/m² | - |
| 1778000827 | 20° C | 74% | 1005.3 hPa | 0 mm | 2.68 m/s, 211° | 256 W/m² | - |
* Rain latest hour (hover to see other rain measurements)
** Current wind speed in m/s (hover to see current wind gust speed)